createdAt,value
2016-10-22T00:01:04.973Z,11.16
2016-10-22T00:02:14.978Z,11.15
2016-10-22T00:03:25.293Z,11.15
2016-10-22T00:04:35.319Z,11.2
2016-10-22T00:05:45.624Z,11.24
2016-10-22T00:06:55.607Z,11.18
2016-10-22T00:08:05.827Z,11.27
2016-10-22T00:09:15.809Z,11.26
2016-10-22T00:10:26.105Z,11.28
2016-10-22T00:11:36.093Z,11.26
2016-10-22T00:12:46.087Z,11.23
2016-10-22T00:13:56.061Z,11.18
2016-10-22T00:15:06.053Z,11.35
2016-10-22T00:16:16.376Z,11.31
2016-10-22T00:17:26.723Z,11.27
2016-10-22T00:18:37.030Z,11.24
2016-10-22T00:19:47.344Z,11.18
2016-10-22T00:20:57.313Z,11.09
2016-10-22T00:22:07.615Z,11.3
2016-10-22T00:23:17.953Z,11.23
2016-10-22T00:24:27.932Z,11.16
2016-10-22T00:25:38.244Z,11.16
2016-10-22T00:26:48.555Z,11.15
2016-10-22T00:27:58.565Z,11.2
2016-10-22T00:29:08.867Z,11.12
2016-10-22T00:30:19.170Z,11.18
2016-10-22T00:31:29.449Z,11.1
2016-10-22T00:32:39.740Z,11.1
2016-10-22T00:33:50.074Z,10.97
2016-10-22T00:35:00.041Z,10.87
2016-10-22T00:36:10.333Z,10.94
2016-10-22T00:37:20.309Z,10.8
2016-10-22T00:38:30.576Z,10.84
2016-10-22T00:39:40.852Z,10.76
2016-10-22T00:40:51.136Z,10.84
2016-10-22T00:42:01.418Z,10.73
2016-10-22T00:43:11.723Z,10.76
2016-10-22T00:44:21.719Z,10.73
2016-10-22T00:45:32.001Z,10.79
2016-10-22T00:46:42.284Z,10.77
2016-10-22T00:47:52.561Z,10.61
2016-10-22T00:49:02.846Z,10.79
2016-10-22T00:50:13.123Z,10.69
2016-10-22T00:51:22.791Z,10.7
2016-10-22T00:52:32.782Z,10.69
2016-10-22T00:53:43.099Z,10.66
2016-10-22T00:54:53.064Z,10.65
2016-10-22T00:56:03.040Z,10.52
2016-10-22T00:57:13.007Z,10.47
2016-10-22T00:58:23.304Z,10.49
2016-10-22T00:59:33.626Z,10.42
2016-10-22T01:00:43.949Z,10.39
2016-10-22T01:01:54.240Z,10.46
2016-10-22T01:03:04.526Z,10.31
2016-10-22T01:04:14.498Z,10.38
2016-10-22T01:05:24.772Z,10.35
2016-10-22T01:06:35.046Z,10.35
2016-10-22T01:07:45.022Z,10.23
2016-10-22T01:08:55.020Z,10.23
2016-10-22T01:10:05.310Z,10.31
2016-10-22T01:11:15.332Z,10.26
2016-10-22T01:12:25.009Z,10.32
2016-10-22T01:13:34.060Z,10.2
2016-10-22T01:14:44.034Z,10.26
2016-10-22T01:15:53.999Z,10.28
2016-10-22T01:17:04.285Z,10.26
2016-10-22T01:18:14.565Z,10.21
2016-10-22T01:19:24.884Z,10.23
2016-10-22T01:20:35.170Z,10.25
2016-10-22T01:21:44.839Z,10.26
2016-10-22T01:22:55.124Z,10.33
2016-10-22T01:24:05.396Z,10.23
2016-10-22T01:25:15.377Z,10.23
2016-10-22T01:26:25.644Z,10.28
2016-10-22T01:27:35.616Z,10.32
2016-10-22T01:28:45.873Z,10.38
2016-10-22T01:29:56.160Z,10.31
2016-10-22T01:31:06.447Z,10.31
2016-10-22T01:32:16.734Z,10.26
2016-10-22T01:33:27.074Z,10.29
2016-10-22T01:34:37.350Z,10.28
2016-10-22T01:35:47.639Z,10.31
2016-10-22T01:36:57.299Z,10.11
2016-10-22T01:38:07.290Z,10.14
2016-10-22T01:39:17.568Z,10.2
2016-10-22T01:40:27.549Z,10.15
2016-10-22T01:41:37.826Z,10.13
2016-10-22T01:42:48.111Z,10.11
2016-10-22T01:43:58.087Z,10.1
2016-10-22T01:45:08.365Z,10.05
2016-10-22T01:46:18.653Z,10.02
2016-10-22T01:47:28.955Z,10.02
2016-10-22T01:48:39.260Z,10.02
2016-10-22T01:49:49.232Z,9.99
2016-10-22T01:50:59.203Z,10.02
2016-10-22T01:52:09.519Z,9.93
2016-10-22T01:53:19.795Z,10.03
2016-10-22T01:54:30.078Z,9.96
2016-10-22T01:55:40.039Z,9.98
2016-10-22T01:56:50.312Z,9.96
2016-10-22T01:58:00.593Z,9.95
2016-10-22T01:59:10.882Z,9.99
2016-10-22T02:00:21.171Z,9.99
2016-10-22T02:01:31.464Z,10.02
2016-10-22T02:02:41.799Z,9.99
2016-10-22T02:03:52.085Z,9.95
2016-10-22T02:05:02.373Z,9.9
2016-10-22T02:06:12.649Z,9.9
2016-10-22T02:07:22.646Z,9.82
2016-10-22T02:08:32.929Z,9.85
2016-10-22T02:09:42.592Z,9.89
2016-10-22T02:10:52.872Z,9.84
2016-10-22T02:12:03.173Z,9.88
2016-10-22T02:13:13.456Z,9.75
2016-10-22T02:14:23.743Z,9.84
2016-10-22T02:15:33.723Z,9.77
2016-10-22T02:16:44.025Z,9.75
2016-10-22T02:17:53.991Z,9.75
2016-10-22T02:19:04.291Z,9.62
2016-10-22T02:20:14.285Z,9.67
2016-10-22T02:21:23.951Z,9.64
2016-10-22T02:22:34.245Z,9.67
2016-10-22T02:23:44.223Z,9.6
2016-10-22T02:24:54.552Z,9.56
2016-10-22T02:26:04.829Z,9.63
2016-10-22T02:27:15.119Z,9.59
2016-10-22T02:28:25.396Z,9.57
2016-10-22T02:29:35.381Z,9.44
2016-10-22T02:30:45.710Z,9.56
2016-10-22T02:31:55.684Z,9.52
2016-10-22T02:33:06.011Z,9.52
2016-10-22T02:34:15.997Z,9.5
2016-10-22T02:35:26.309Z,9.39
2016-10-22T02:36:35.977Z,9.41
2016-10-22T02:37:45.948Z,9.42
2016-10-22T02:38:56.234Z,9.44
2016-10-22T02:40:06.503Z,9.44
2016-10-22T02:41:16.813Z,9.41
2016-10-22T02:42:27.102Z,9.37
2016-10-22T02:43:37.081Z,9.41
2016-10-22T02:44:47.373Z,9.23
2016-10-22T02:45:57.350Z,9.38
2016-10-22T02:47:07.636Z,9.32
2016-10-22T02:48:17.597Z,9.24
2016-10-22T02:49:27.869Z,9.21
2016-10-22T02:50:38.145Z,9.27
2016-10-22T02:51:48.434Z,9.32
2016-10-22T02:52:58.719Z,9.24
2016-10-22T02:54:08.676Z,9.23
2016-10-22T02:55:18.328Z,9.21
2016-10-22T02:56:28.639Z,9.19
2016-10-22T02:57:38.004Z,9.2
2016-10-22T02:58:48.281Z,9.16
2016-10-22T02:59:58.240Z,9.23
2016-10-22T03:01:08.530Z,9.26
2016-10-22T03:33:33.612Z,5.6
2016-10-22T03:34:43.589Z,5.6
2016-10-22T03:35:53.851Z,5.6
2016-10-22T03:37:03.836Z,5.57
2016-10-22T03:38:14.110Z,5.59
2016-10-22T03:39:24.077Z,5.66
2016-10-22T03:40:34.044Z,5.8
2016-10-22T03:41:44.052Z,5.91
2016-10-22T03:42:54.335Z,6.17
2016-10-22T03:44:04.613Z,6.37
2016-10-22T03:45:14.881Z,6.49
2016-10-22T03:46:25.170Z,6.51
2016-10-22T03:47:35.460Z,6.78
2016-10-22T03:48:45.725Z,6.91
2016-10-22T03:49:55.688Z,7.03
2016-10-22T03:51:05.957Z,7.12
2016-10-22T03:52:16.239Z,7.27
2016-10-22T03:53:26.223Z,7.36
2016-10-22T03:54:36.507Z,7.49
2016-10-22T03:55:46.784Z,7.59
2016-10-22T03:56:57.047Z,7.67
2016-10-22T03:58:06.423Z,7.74
2016-10-22T03:59:16.401Z,7.78
2016-10-22T04:00:26.375Z,7.91
2016-10-22T04:01:36.663Z,7.92
2016-10-22T04:02:46.929Z,7.98
2016-10-22T04:03:57.216Z,8.13
2016-10-22T04:05:07.491Z,8.16
2016-10-22T04:06:17.454Z,8.16
2016-10-22T04:07:27.750Z,8.28
2016-10-22T04:08:37.726Z,8.24
2016-10-22T04:09:48.046Z,8.31
2016-10-22T04:10:58.360Z,8.31
2016-10-22T04:12:08.337Z,8.39
2016-10-22T04:13:18.621Z,8.44
2016-10-22T04:14:28.587Z,8.49
2016-10-22T04:15:38.886Z,8.49
2016-10-22T04:16:49.195Z,8.5
2016-10-22T04:17:59.175Z,8.46
2016-10-22T04:19:09.483Z,8.54
2016-10-22T04:20:19.755Z,8.64
2016-10-22T04:21:29.449Z,8.57
2016-10-22T04:22:39.735Z,8.52
2016-10-22T04:23:50.020Z,8.58
2016-10-22T04:25:00.297Z,8.61
2016-10-22T04:26:10.579Z,8.52
2016-10-22T04:27:20.552Z,8.67
2016-10-22T04:28:30.518Z,8.65
2016-10-22T04:29:40.489Z,8.58
2016-10-22T04:30:50.768Z,8.58
2016-10-22T04:32:01.045Z,8.62
2016-10-22T04:33:11.330Z,8.53
2016-10-22T04:34:21.302Z,8.65
2016-10-22T04:35:31.593Z,8.64
2016-10-22T04:36:41.570Z,8.64
2016-10-22T04:37:51.542Z,8.54
2016-10-22T04:39:01.523Z,8.61
2016-10-22T04:40:11.805Z,8.58
2016-10-22T04:41:21.458Z,8.49
2016-10-22T04:42:31.435Z,8.54
2016-10-22T04:43:41.425Z,8.57
2016-10-22T04:44:51.392Z,8.52
2016-10-22T04:46:01.684Z,8.6
2016-10-22T04:47:11.654Z,8.62
2016-10-22T04:48:21.946Z,8.52
2016-10-22T04:49:31.925Z,8.57
2016-10-22T04:50:42.215Z,8.44
2016-10-22T04:51:52.507Z,8.65
2016-10-22T04:53:02.792Z,8.54
2016-10-22T04:54:13.073Z,8.61
2016-10-22T04:55:23.367Z,8.47
2016-10-22T04:56:33.385Z,8.58
2016-10-22T04:57:43.666Z,8.54
2016-10-22T04:58:53.959Z,8.43
2016-10-22T05:00:04.230Z,8.58
2016-10-22T05:01:14.204Z,8.54
2016-10-22T05:02:24.484Z,8.43
2016-10-22T05:03:34.761Z,8.53
2016-10-22T05:04:45.038Z,8.47
2016-10-22T05:05:55.319Z,8.44
2016-10-22T05:07:05.601Z,8.44
2016-10-22T05:08:15.879Z,8.46
2016-10-22T05:09:25.866Z,8.47
2016-10-22T05:10:36.191Z,8.46
2016-10-22T05:11:46.153Z,8.43
2016-10-22T05:12:56.132Z,8.4
2016-10-22T05:14:06.097Z,8.43
2016-10-22T05:15:16.379Z,8.58
2016-10-22T05:16:26.668Z,8.43
2016-10-22T05:17:36.992Z,8.43
2016-10-22T05:18:46.959Z,8.47
2016-10-22T05:19:56.936Z,8.4
2016-10-22T05:21:06.293Z,8.39
2016-10-22T05:22:16.267Z,8.42
2016-10-22T05:23:26.546Z,8.47
2016-10-22T05:24:36.873Z,8.46
2016-10-22T05:25:47.162Z,8.54
2016-10-22T05:26:56.826Z,8.43
2016-10-22T05:28:07.104Z,8.47
2016-10-22T05:29:17.079Z,8.44
2016-10-22T05:30:27.052Z,8.58
2016-10-22T05:31:37.330Z,8.46
2016-10-22T05:32:47.343Z,8.57
2016-10-22T05:33:57.317Z,8.47
2016-10-22T05:35:07.309Z,8.54
2016-10-22T05:36:17.584Z,8.53
2016-10-22T05:37:27.884Z,8.67
2016-10-22T05:38:38.161Z,8.69
2016-10-22T05:39:48.129Z,8.67
2016-10-22T05:40:58.121Z,8.8
2016-10-22T05:42:08.409Z,8.8
2016-10-22T05:43:18.382Z,8.74
2016-10-22T05:44:28.385Z,8.79
2016-10-22T05:45:38.719Z,8.94
2016-10-22T05:46:48.363Z,8.94
2016-10-22T05:47:58.352Z,8.97
2016-10-22T05:49:08.674Z,8.92
2016-10-22T05:50:18.638Z,9
2016-10-22T05:51:28.610Z,9.11
2016-10-22T05:52:38.889Z,9.04
2016-10-22T05:53:49.182Z,9.12
2016-10-22T05:54:59.458Z,9.11
2016-10-22T05:56:09.753Z,9.12
2016-10-22T05:57:20.037Z,9.2
2016-10-22T05:58:30.338Z,9.21
2016-10-22T05:59:40.626Z,9.2
2016-10-22T06:00:50.906Z,9.21
2016-10-22T06:02:01.189Z,9.29
2016-10-22T06:03:11.490Z,9.34
2016-10-22T06:04:21.775Z,9.27
2016-10-22T06:05:32.042Z,9.32
2016-10-22T06:06:42.329Z,9.37
2016-10-22T06:07:52.306Z,9.38
2016-10-22T06:09:02.589Z,9.41
2016-10-22T06:10:12.566Z,9.44
2016-10-22T06:11:22.564Z,9.45
2016-10-22T06:12:32.543Z,9.48
2016-10-22T06:13:42.555Z,9.53
2016-10-22T06:14:52.843Z,9.59
2016-10-22T06:16:03.137Z,9.63
2016-10-22T06:17:13.421Z,9.63
2016-10-22T06:18:23.711Z,9.75
2016-10-22T06:19:32.769Z,9.81
2016-10-22T06:20:43.052Z,9.88
2016-10-22T06:21:53.037Z,9.85
2016-10-22T06:23:03.333Z,9.99
2016-10-22T06:24:13.624Z,10.08
2016-10-22T06:25:23.927Z,10.14
2016-10-22T06:26:34.238Z,10.25
2016-10-22T06:27:44.552Z,10.23
2016-10-22T06:28:54.847Z,10.42
2016-10-22T06:30:05.139Z,10.46
2016-10-22T06:31:15.120Z,10.66
2016-10-22T06:32:25.413Z,10.75
2016-10-22T06:33:35.693Z,10.79
2016-10-22T06:34:45.986Z,10.87
2016-10-22T06:35:55.977Z,10.98
2016-10-22T06:37:06.253Z,11.05
2016-10-22T06:38:16.526Z,11.15
2016-10-22T06:39:27.058Z,11.26
2016-10-22T06:40:37.344Z,11.18
2016-10-22T06:41:47.620Z,11.38
2016-10-22T06:42:57.910Z,11.34
2016-10-22T06:44:08.193Z,11.39
2016-10-22T06:45:18.481Z,11.45
2016-10-22T06:46:28.779Z,11.57
2016-10-22T06:47:39.104Z,11.6
2016-10-22T06:48:49.420Z,11.67
2016-10-22T06:49:59.392Z,11.64
2016-10-22T06:51:09.700Z,11.75
2016-10-22T06:52:20.005Z,11.68
2016-10-22T06:53:30.331Z,11.79
2016-10-22T06:54:40.629Z,11.88
2016-10-22T06:55:50.914Z,11.91
2016-10-22T06:57:00.879Z,12.07
2016-10-22T06:58:11.160Z,12.13
2016-10-22T06:59:21.446Z,12.15
2016-10-22T07:00:31.744Z,12.22
2016-10-22T07:01:42.021Z,12.28
2016-10-22T07:02:52.316Z,12.36
2016-10-22T07:04:01.985Z,12.37
2016-10-22T07:05:11.966Z,12.4
2016-10-22T07:06:22.257Z,12.4
2016-10-22T07:07:32.540Z,12.38
2016-10-22T07:08:42.823Z,12.31
2016-10-22T07:09:53.106Z,12.33
2016-10-22T07:11:03.078Z,12.23
2016-10-22T07:12:13.370Z,12.13
2016-10-22T07:13:23.648Z,12.1
2016-10-22T07:14:33.623Z,12.13
2016-10-22T07:15:43.915Z,12.19
2016-10-22T07:16:54.228Z,12.11
2016-10-22T07:18:04.529Z,12.18
2016-10-22T07:19:14.815Z,12.19
2016-10-22T07:20:24.806Z,12.18
2016-10-22T07:21:34.793Z,12.08
2016-10-22T07:22:44.785Z,12.08
2016-10-22T07:23:54.786Z,12.03
2016-10-22T07:25:05.068Z,12.01
2016-10-22T07:26:15.364Z,12.08
2016-10-22T07:27:25.651Z,11.91
2016-10-22T07:28:35.624Z,11.95
2016-10-22T07:29:45.634Z,12.11
2016-10-22T07:30:54.998Z,12.23
2016-10-22T07:32:05.287Z,12.23
2016-10-22T07:33:15.306Z,12.26
2016-10-22T07:34:25.581Z,12.37
2016-10-22T07:35:35.556Z,12.51
2016-10-22T07:36:45.821Z,12.4
2016-10-22T07:37:55.812Z,12.41
2016-10-22T07:39:05.783Z,12.52
2016-10-22T07:40:15.459Z,12.44
2016-10-22T07:41:25.431Z,12.47
2016-10-22T07:42:35.717Z,12.44
2016-10-22T07:43:45.994Z,12.41
2016-10-22T07:44:55.962Z,12.47
2016-10-22T07:46:06.251Z,12.45
2016-10-22T07:47:16.569Z,12.55
2016-10-22T07:48:26.860Z,12.53
2016-10-22T07:49:37.192Z,12.58
2016-10-22T07:50:47.465Z,12.52
2016-10-22T07:51:57.440Z,12.51
2016-10-22T07:53:07.718Z,12.55
2016-10-22T07:54:17.990Z,12.56
2016-10-22T07:55:28.265Z,12.45
2016-10-22T07:56:38.229Z,12.53
2016-10-22T07:57:48.516Z,12.56
2016-10-22T07:58:58.801Z,12.52
2016-10-22T08:00:09.143Z,12.52
2016-10-22T08:01:19.459Z,12.59
2016-10-22T08:02:29.757Z,12.55
2016-10-22T08:03:39.123Z,12.53
2016-10-22T08:04:49.409Z,12.44
2016-10-22T08:05:59.391Z,12.53
2016-10-22T08:07:09.373Z,12.44
2016-10-22T08:08:19.674Z,12.51
2016-10-22T08:09:29.962Z,12.44
2016-10-22T08:10:39.933Z,12.55
2016-10-22T08:11:50.221Z,12.52
2016-10-22T08:13:00.201Z,12.59
2016-10-22T08:14:10.172Z,12.58
2016-10-22T08:15:20.454Z,12.59
2016-10-22T08:16:30.772Z,12.62
2016-10-22T08:17:40.739Z,12.69
2016-10-22T08:18:51.029Z,12.71
2016-10-22T08:20:01.319Z,12.77
2016-10-22T08:21:11.603Z,12.89
2016-10-22T08:22:21.906Z,12.94
2016-10-22T08:23:32.193Z,13.01
2016-10-22T08:24:42.482Z,13.13
2016-10-22T08:25:52.459Z,13.13
2016-10-22T08:27:02.743Z,13.17
2016-10-22T08:28:13.040Z,13.21
2016-10-22T08:29:23.311Z,13.19
2016-10-22T08:30:33.592Z,13.29
2016-10-22T08:31:43.914Z,13.28
2016-10-22T08:32:54.191Z,13.35
2016-10-22T08:34:04.162Z,13.53
2016-10-22T08:35:14.147Z,13.5
2016-10-22T08:36:24.438Z,13.57
2016-10-22T08:37:34.453Z,13.63
2016-10-22T08:38:44.759Z,13.62
2016-10-22T08:39:55.043Z,13.66
2016-10-22T08:41:04.709Z,13.76
2016-10-22T08:42:14.997Z,13.78
2016-10-22T08:43:25.286Z,13.83
2016-10-22T08:44:35.273Z,13.93
2016-10-22T08:45:45.560Z,14.05
2016-10-22T08:46:55.836Z,14.23
2016-10-22T08:48:06.151Z,14.44
2016-10-22T08:49:16.435Z,14.57
2016-10-22T08:50:26.408Z,14.69
2016-10-22T08:51:36.697Z,14.93
2016-10-22T08:52:46.995Z,15.12
2016-10-22T08:53:57.280Z,15.2
2016-10-22T08:55:07.564Z,15.35
2016-10-22T08:56:17.845Z,15.45
2016-10-22T08:57:27.831Z,15.55
2016-10-22T08:58:37.814Z,15.65
2016-10-22T08:59:48.100Z,15.74
2016-10-22T09:00:58.438Z,15.86
2016-10-22T09:02:08.720Z,15.95
2016-10-22T09:03:18.721Z,16.02
2016-10-22T09:04:29.021Z,15.96
2016-10-22T09:05:38.993Z,16.16
2016-10-22T09:06:49.300Z,16.17
2016-10-22T09:07:59.677Z,16.13
2016-10-22T09:09:12.493Z,16.02
2016-10-22T09:10:30.316Z,16
2016-10-22T09:11:46.402Z,15.91
2016-10-22T09:12:58.564Z,15.8
2016-10-22T09:14:08.883Z,15.75
2016-10-22T09:15:18.890Z,15.73
2016-10-22T09:16:28.891Z,15.63
2016-10-22T09:17:39.485Z,15.67
2016-10-22T09:18:49.793Z,15.67
2016-10-22T09:20:00.096Z,15.68
2016-10-22T09:21:10.384Z,15.63
2016-10-22T09:22:20.366Z,15.68
2016-10-22T09:23:30.679Z,15.73
2016-10-22T09:24:40.995Z,15.74
2016-10-22T09:25:51.303Z,15.78
2016-10-22T09:27:01.634Z,15.88
2016-10-22T09:28:11.993Z,15.89
2016-10-22T09:29:22.268Z,15.86
2016-10-22T09:30:32.276Z,15.88
2016-10-22T09:31:41.984Z,15.95
2016-10-22T09:32:52.297Z,15.95
2016-10-22T09:34:02.634Z,16.11
2016-10-22T09:35:12.669Z,16.13
2016-10-22T09:36:22.652Z,16.14
2016-10-22T09:37:32.615Z,16.22
2016-10-22T09:38:42.897Z,16.32
2016-10-22T09:39:53.136Z,16.22
2016-10-22T09:41:03.426Z,16.3
2016-10-22T09:42:13.408Z,16.34
2016-10-22T09:43:23.927Z,16.47
2016-10-22T09:44:34.205Z,16.45
2016-10-22T09:45:44.517Z,16.36
2016-10-22T09:46:54.849Z,16.49
2016-10-22T09:48:04.545Z,16.44
2016-10-22T09:49:14.837Z,16.48
2016-10-22T09:50:25.118Z,16.49
2016-10-22T09:51:35.423Z,16.57
2016-10-22T09:52:45.083Z,16.69
2016-10-22T09:53:55.413Z,16.69
2016-10-22T09:55:05.696Z,16.7
2016-10-22T09:56:15.977Z,16.74
2016-10-22T09:57:26.006Z,16.8
2016-10-22T09:58:35.994Z,16.85
2016-10-22T09:59:46.382Z,17.03
2016-10-22T10:00:56.714Z,17
2016-10-22T10:02:07.002Z,17.03
2016-10-22T10:03:17.297Z,17.06
2016-10-22T10:04:27.822Z,17.13
2016-10-22T10:05:37.810Z,17.13
2016-10-22T10:06:48.497Z,17.21
2016-10-22T10:07:58.781Z,17.27
2016-10-22T10:09:08.755Z,17.31
2016-10-22T10:10:19.041Z,17.42
2016-10-22T10:11:29.342Z,17.42
2016-10-22T10:12:39.656Z,17.43
2016-10-22T10:13:49.956Z,17.45
2016-10-22T10:15:00.240Z,17.46
2016-10-22T10:16:10.206Z,17.47
2016-10-22T10:17:20.493Z,17.5
2016-10-22T10:18:30.474Z,17.54
2016-10-22T10:19:40.898Z,17.52
2016-10-22T10:20:50.924Z,17.5
2016-10-22T10:22:01.234Z,17.47
2016-10-22T10:23:11.562Z,17.55
2016-10-22T10:24:21.851Z,17.66
2016-10-22T10:25:32.147Z,17.69
2016-10-22T10:26:42.440Z,17.68
2016-10-22T10:27:52.713Z,17.69
2016-10-22T10:29:02.700Z,17.63
2016-10-22T10:30:13.000Z,17.74
2016-10-22T10:31:23.289Z,17.86
2016-10-22T10:32:33.274Z,17.94
2016-10-22T10:33:43.561Z,17.86
2016-10-22T10:34:53.853Z,17.87
2016-10-22T10:36:03.840Z,18.02
2016-10-22T10:37:13.823Z,18.01
2016-10-22T10:38:24.113Z,18.06
2016-10-22T10:39:34.399Z,18.05
2016-10-22T10:40:44.683Z,18.11
2016-10-22T10:41:54.664Z,18.19
2016-10-22T10:43:04.950Z,18.17
2016-10-22T10:44:15.281Z,18.29
2016-10-22T10:45:25.262Z,18.13
2016-10-22T10:46:35.556Z,18.13
2016-10-22T10:47:45.856Z,18.23
2016-10-22T10:48:56.135Z,18.29
2016-10-22T10:50:06.124Z,18.2
2016-10-22T10:51:16.118Z,18.19
2016-10-22T10:52:26.402Z,18.23
2016-10-22T10:53:36.400Z,18.14
2016-10-22T10:54:46.686Z,18.11
2016-10-22T10:55:57.034Z,18.27
2016-10-22T10:57:07.308Z,18.26
2016-10-22T10:58:17.577Z,18.08
2016-10-22T10:59:27.868Z,18.16
2016-10-22T11:00:37.860Z,18.14
2016-10-22T11:01:48.198Z,18.1
2016-10-22T11:02:58.497Z,18.1
2016-10-22T11:04:08.510Z,18.08
2016-10-22T11:05:18.830Z,18.1
2016-10-22T11:06:29.123Z,18.17
2016-10-22T11:07:39.436Z,18.17
2016-10-22T11:08:49.722Z,18.19
2016-10-22T11:10:00.016Z,18.2
2016-10-22T11:11:10.312Z,18.31
2016-10-22T11:12:20.605Z,18.17
2016-10-22T11:13:30.888Z,18.36
2016-10-22T11:14:40.861Z,18.36
2016-10-22T11:15:50.853Z,18.49
2016-10-22T11:17:00.830Z,18.49
2016-10-22T11:18:10.819Z,18.53
2016-10-22T11:19:20.807Z,18.54
2016-10-22T11:20:31.087Z,18.6
2016-10-22T11:21:41.428Z,18.65
2016-10-22T11:22:51.718Z,18.87
2016-10-22T11:24:01.724Z,18.84
2016-10-22T11:25:12.005Z,18.93
2016-10-22T11:26:21.993Z,18.94
2016-10-22T11:27:32.303Z,19.1
2016-10-22T11:28:42.275Z,19.1
2016-10-22T11:29:52.574Z,19.23
2016-10-22T11:31:02.855Z,19.4
2016-10-22T11:32:13.240Z,19.5
2016-10-22T11:33:23.240Z,19.67
2016-10-22T11:34:33.573Z,19.64
2016-10-22T11:35:43.861Z,19.75
2016-10-22T11:36:54.172Z,19.67
2016-10-22T11:38:04.494Z,19.72
2016-10-22T11:39:14.790Z,19.65
2016-10-22T11:40:25.077Z,19.67
2016-10-22T11:41:34.761Z,19.79
2016-10-22T11:42:45.041Z,19.6
2016-10-22T11:43:55.034Z,19.68
2016-10-22T11:45:05.001Z,19.6
2016-10-22T11:46:14.982Z,19.63
2016-10-22T11:47:25.287Z,19.6
2016-10-22T11:48:35.270Z,19.52
2016-10-22T11:49:45.571Z,19.57
2016-10-22T11:50:55.883Z,19.49
2016-10-22T11:52:05.864Z,19.49
2016-10-22T11:53:16.411Z,19.55
2016-10-22T11:54:26.692Z,19.55
2016-10-22T11:55:36.989Z,19.63
2016-10-22T11:56:47.288Z,19.56
2016-10-22T11:57:57.573Z,19.47
2016-10-22T11:59:07.790Z,19.46
2016-10-22T12:00:18.091Z,19.47
2016-10-22T12:01:28.394Z,19.53
2016-10-22T12:02:38.695Z,19.55
2016-10-22T12:03:49.026Z,19.61
2016-10-22T12:04:59.322Z,19.61
2016-10-22T12:06:09.619Z,19.67
2016-10-22T12:07:19.931Z,19.68
2016-10-22T12:08:30.229Z,19.75
2016-10-22T12:09:40.518Z,19.75
2016-10-22T12:10:50.832Z,19.79
2016-10-22T12:12:00.820Z,19.82
2016-10-22T12:13:11.125Z,19.78
2016-10-22T12:14:21.417Z,19.79
2016-10-22T12:15:31.720Z,19.86
2016-10-22T12:16:42.012Z,19.82
2016-10-22T12:17:52.307Z,19.75
2016-10-22T12:19:02.600Z,19.83
2016-10-22T12:20:12.307Z,19.83
2016-10-22T12:21:22.597Z,19.87
2016-10-22T12:22:32.902Z,19.8
2016-10-22T12:23:43.191Z,19.83
2016-10-22T12:24:53.492Z,19.79
2016-10-22T12:26:03.793Z,19.72
2016-10-22T12:27:14.081Z,19.6
2016-10-22T12:28:24.376Z,19.65
2016-10-22T12:29:34.678Z,19.67
2016-10-22T12:30:44.958Z,19.56
2016-10-22T12:31:55.268Z,19.65
2016-10-22T12:33:05.556Z,19.61
2016-10-22T12:34:15.841Z,19.56
2016-10-22T12:35:25.518Z,19.64
2016-10-22T12:36:35.828Z,19.61
2016-10-22T12:37:46.135Z,19.68
2016-10-22T12:38:56.422Z,19.64
2016-10-22T12:40:06.411Z,19.6
2016-10-22T12:41:16.693Z,19.67
2016-10-22T12:42:27.031Z,19.72
2016-10-22T12:43:36.708Z,19.7
2016-10-22T12:44:47.000Z,19.78
2016-10-22T12:45:57.306Z,19.65
2016-10-22T12:47:07.603Z,19.64
2016-10-22T12:48:17.942Z,19.65
2016-10-22T12:49:28.228Z,19.57
2016-10-22T12:50:38.517Z,19.56
2016-10-22T12:51:48.809Z,19.55
2016-10-22T12:52:59.100Z,19.49
2016-10-22T12:54:09.278Z,19.49
2016-10-22T12:55:19.560Z,19.5
2016-10-22T12:56:30.086Z,19.52
2016-10-22T12:57:40.403Z,19.49
2016-10-22T12:58:50.690Z,19.46
2016-10-22T13:00:00.971Z,19.47
2016-10-22T13:01:10.963Z,19.4
2016-10-22T13:02:21.309Z,19.38
2016-10-22T13:03:31.613Z,19.31
2016-10-22T13:04:41.282Z,19.24
2016-10-22T13:05:51.592Z,19.27
2016-10-22T13:07:01.596Z,19.23
2016-10-22T13:08:11.883Z,19.27
2016-10-22T13:09:22.190Z,19.1
2016-10-22T13:10:32.481Z,18.9
2016-10-22T13:11:42.155Z,18.86
2016-10-22T13:12:52.464Z,18.87
2016-10-22T13:14:02.782Z,18.96
2016-10-22T13:15:12.764Z,18.79
2016-10-22T13:16:23.049Z,18.96
2016-10-22T13:17:33.386Z,18.94
2016-10-22T13:18:43.669Z,19.13
2016-10-22T13:19:53.689Z,19.07
2016-10-22T13:21:03.972Z,19.13
2016-10-22T13:22:13.654Z,19.02
2016-10-22T13:23:23.965Z,18.9
2016-10-22T13:24:33.946Z,18.97
2016-10-22T13:25:43.943Z,18.94
2016-10-22T13:26:54.241Z,19.05
2016-10-22T13:28:04.511Z,18.97
2016-10-22T13:29:14.828Z,18.97
2016-10-22T13:30:25.149Z,18.99
2016-10-22T13:31:35.136Z,19.12
2016-10-22T13:32:45.128Z,18.96
2016-10-22T13:33:54.843Z,19.02
2016-10-22T13:35:05.131Z,18.94
2016-10-22T13:36:15.418Z,18.93
2016-10-22T13:37:25.702Z,18.86
2016-10-22T13:38:35.993Z,18.87
2016-10-22T13:39:46.012Z,18.82
2016-10-22T13:40:56.320Z,18.84
2016-10-22T13:42:06.627Z,18.9
2016-10-22T13:43:16.938Z,18.89
2016-10-22T13:44:27.223Z,18.78
2016-10-22T13:45:37.509Z,18.75
2016-10-22T13:46:47.803Z,18.76
2016-10-22T13:47:57.775Z,18.74
2016-10-22T13:49:08.067Z,18.75
2016-10-22T13:50:18.385Z,18.69
2016-10-22T13:51:28.366Z,18.71
2016-10-22T13:52:38.656Z,18.71
2016-10-22T13:53:48.982Z,18.68
2016-10-22T13:54:59.280Z,18.68
2016-10-22T13:56:09.287Z,18.65
2016-10-22T13:57:19.577Z,18.61
2016-10-22T13:58:29.550Z,18.54
2016-10-22T13:59:39.853Z,18.51
2016-10-22T14:00:49.837Z,18.49
2016-10-22T14:02:00.116Z,18.51
2016-10-22T14:03:10.408Z,18.47
2016-10-22T14:04:20.694Z,18.45
2016-10-22T14:05:30.361Z,18.44
2016-10-22T14:06:40.663Z,18.42
2016-10-22T14:07:50.686Z,18.34
2016-10-22T14:09:00.984Z,18.26
2016-10-22T14:10:11.298Z,18.16
2016-10-22T14:11:21.608Z,18.16
2016-10-22T14:12:31.603Z,18.16
2016-10-22T14:13:41.885Z,18.14
2016-10-22T14:14:51.869Z,18.19
2016-10-22T14:16:02.144Z,18.06
2016-10-22T14:17:12.691Z,18.01
2016-10-22T14:18:23.000Z,18.02
2016-10-22T14:19:33.320Z,18.02
2016-10-22T14:20:43.619Z,17.99
2016-10-22T14:21:54.257Z,17.98
2016-10-22T14:23:05.178Z,17.86
2016-10-22T14:24:15.485Z,17.84
2016-10-22T14:25:26.662Z,17.71
2016-10-22T14:26:36.976Z,17.77
2016-10-22T14:27:47.270Z,17.69
2016-10-22T14:28:57.582Z,17.68
2016-10-22T14:30:07.900Z,17.69
2016-10-22T14:31:18.209Z,17.63
2016-10-22T14:32:28.505Z,17.52
2016-10-22T14:33:38.521Z,17.55
2016-10-22T14:34:48.831Z,17.42
2016-10-22T14:35:59.115Z,17.52
2016-10-22T14:37:11.230Z,17.43
2016-10-22T14:38:21.736Z,17.3
2016-10-22T14:39:31.744Z,17.38
2016-10-22T14:40:42.053Z,17.18
2016-10-22T14:41:52.372Z,17.27
2016-10-22T14:43:02.664Z,17.24
2016-10-22T14:44:12.645Z,17.18
2016-10-22T14:45:22.954Z,17.12
2016-10-22T14:46:32.655Z,17.07
2016-10-22T14:47:42.926Z,17.1
2016-10-22T14:48:52.898Z,17.05
2016-10-22T14:50:03.180Z,17.1
2016-10-22T14:51:13.474Z,16.95
2016-10-22T14:52:23.460Z,16.9
2016-10-22T14:53:33.444Z,16.9
2016-10-22T14:54:43.114Z,16.82
2016-10-22T14:55:53.402Z,16.69
2016-10-22T14:57:03.684Z,16.62
2016-10-22T14:58:14.022Z,16.55
2016-10-22T14:59:24.009Z,16.59
2016-10-22T15:00:33.677Z,16.48
2016-10-22T15:01:43.736Z,16.4
2016-10-22T15:02:54.033Z,16.25
2016-10-22T15:04:04.429Z,16.14
2016-10-22T15:05:14.773Z,16.1
2016-10-22T15:06:25.069Z,16
2016-10-22T15:07:35.357Z,15.93
2016-10-22T15:08:45.641Z,15.93
2016-10-22T15:09:55.943Z,15.98
2016-10-22T15:11:06.236Z,15.92
2016-10-22T15:12:16.532Z,15.86
2016-10-22T15:13:26.834Z,15.81
2016-10-22T15:14:37.144Z,15.8
2016-10-22T15:15:47.431Z,15.74
2016-10-22T15:16:57.740Z,15.73
2016-10-22T15:18:08.052Z,15.65
2016-10-22T15:19:18.347Z,15.58
2016-10-22T15:20:28.658Z,15.62
2016-10-22T15:21:39.061Z,15.56
2016-10-22T15:22:48.732Z,15.49
2016-10-22T15:23:59.029Z,15.44
2016-10-22T15:25:09.330Z,15.35
2016-10-22T15:26:19.343Z,15.37
2016-10-22T15:27:29.651Z,15.18
2016-10-22T15:28:39.670Z,15.23
2016-10-22T15:29:49.961Z,15.25
2016-10-22T15:31:00.263Z,15.12
2016-10-22T15:32:10.557Z,15.07
2016-10-22T15:33:20.843Z,15.07
2016-10-22T15:34:30.816Z,15.04
2016-10-22T15:35:41.145Z,14.85
2016-10-22T15:36:51.464Z,14.86
2016-10-22T15:38:01.765Z,14.85
2016-10-22T15:39:11.440Z,14.71
2016-10-22T15:40:21.827Z,14.63
2016-10-22T15:41:31.825Z,14.67
2016-10-22T15:42:41.811Z,14.67
2016-10-22T15:43:52.119Z,14.59
2016-10-22T15:45:02.429Z,14.67
2016-10-22T15:46:12.440Z,14.52